createdAt,value
2018-04-15T00:00:13.709Z,92.90
2018-04-15T00:02:45.480Z,94.00
2018-04-15T00:05:13.209Z,97.60
2018-04-15T00:07:43.761Z,92.80
2018-04-15T00:10:11.840Z,98.40
2018-04-15T00:12:53.548Z,94.90
2018-04-15T00:17:51.700Z,95.00
2018-04-15T00:22:49.429Z,98.60
2018-04-15T00:28:08.383Z,93.30
2018-04-15T00:30:36.081Z,98.40
2018-04-15T00:33:18.530Z,93.90
2018-04-15T00:35:46.622Z,93.40
2018-04-15T00:38:15.405Z,93.80
2018-04-15T00:40:44.244Z,93.70
2018-04-15T00:43:12.949Z,98.70
2018-04-15T00:45:42.157Z,93.60
2018-04-15T00:48:19.509Z,98.50
2018-04-15T00:50:47.279Z,98.60
2018-04-15T00:53:16.489Z,93.30
2018-04-15T00:55:44.552Z,95.30
2018-04-15T00:58:13.384Z,93.30
2018-04-15T01:00:41.830Z,93.20
2018-04-15T01:03:11.361Z,93.20
2018-04-15T01:05:39.767Z,93.30
2018-04-15T01:08:20.959Z,93.20
2018-04-15T01:13:26.768Z,93.50
2018-04-15T01:15:55.253Z,93.80
2018-04-15T01:21:22.689Z,93.70
2018-04-15T01:23:50.429Z,96.90
2018-04-15T01:26:21.730Z,93.50
2018-04-15T01:28:50.221Z,93.50
2018-04-15T01:31:21.871Z,98.80
2018-04-15T01:33:51.271Z,93.60
2018-04-15T01:36:19.776Z,93.90
2018-04-15T01:38:48.193Z,93.60
2018-04-15T01:41:19.761Z,93.50
2018-04-15T01:43:47.864Z,95.50
2018-04-15T01:46:15.648Z,98.30
2018-04-15T01:48:44.139Z,93.60
2018-04-15T01:53:42.689Z,93.60
2018-04-15T01:56:12.503Z,93.60
2018-04-15T01:58:41.385Z,93.70
2018-04-15T02:01:11.838Z,93.70
2018-04-15T02:06:09.484Z,96.60
2018-04-15T02:08:37.221Z,96.30
2018-04-15T02:11:15.540Z,93.90
2018-04-15T02:13:44.045Z,93.60
2018-04-15T02:16:17.377Z,93.70
2018-04-15T02:18:45.597Z,93.50
2018-04-15T02:21:19.052Z,93.60
2018-04-15T02:23:46.882Z,98.60
2018-04-15T02:26:17.108Z,93.50
2018-04-15T02:28:45.583Z,93.50
2018-04-15T02:31:15.243Z,93.50
2018-04-15T02:33:44.116Z,93.60
2018-04-15T02:36:12.283Z,93.80
2018-04-15T02:38:41.142Z,93.70
2018-04-15T02:43:38.323Z,98.70
2018-04-15T02:46:08.741Z,94.00
2018-04-15T02:48:36.458Z,98.80
2018-04-15T02:51:07.182Z,98.80
2018-04-15T02:53:36.544Z,93.60
2018-04-15T02:56:05.010Z,93.80
2018-04-15T02:58:32.674Z,98.20
2018-04-15T03:01:03.601Z,93.20
2018-04-15T03:06:02.213Z,93.10
2018-04-15T03:08:30.324Z,92.90
2018-04-15T03:10:59.120Z,97.90
2018-04-15T03:13:27.796Z,92.80
2018-04-15T03:15:59.496Z,98.00
2018-04-15T03:18:27.799Z,96.30
2018-04-15T03:20:57.330Z,93.10
2018-04-15T03:25:55.084Z,97.60
2018-04-15T03:28:23.526Z,92.90
2018-04-15T03:31:02.433Z,97.90
2018-04-15T03:33:30.150Z,96.60
2018-04-15T03:36:13.432Z,92.90
2018-04-15T03:38:41.918Z,92.80
2018-04-15T03:41:29.506Z,92.80
2018-04-15T03:43:57.812Z,92.80
2018-04-15T03:46:33.019Z,97.80
2018-04-15T03:49:01.486Z,92.90
2018-04-15T03:51:29.944Z,93.20
2018-04-15T03:53:57.719Z,97.90
2018-04-15T03:56:25.483Z,97.90
2018-04-15T03:58:53.187Z,96.20
2018-04-15T04:01:20.923Z,98.10
2018-04-15T04:03:49.430Z,92.90
2018-04-15T04:06:19.985Z,93.00
2018-04-15T04:08:47.765Z,98.00
2018-04-15T04:11:31.504Z,93.00
2018-04-15T04:14:00.129Z,93.00
2018-04-15T04:16:28.254Z,93.00
2018-04-15T04:19:08.854Z,98.10
2018-04-15T04:21:55.048Z,93.40
2018-04-15T04:24:34.592Z,97.10
2018-04-15T04:27:03.146Z,93.60
2018-04-15T04:29:39.686Z,98.30
2018-04-15T04:32:09.035Z,93.60
2018-04-15T04:34:41.430Z,98.40
2018-04-15T04:37:09.926Z,93.60
2018-04-15T04:39:38.731Z,98.20
2018-04-15T04:42:06.450Z,98.50
2018-04-15T04:44:35.964Z,93.80
2018-04-15T04:47:04.892Z,93.70
2018-04-15T04:49:53.696Z,98.90
2018-04-15T04:52:22.015Z,94.30
2018-04-15T04:55:13.014Z,98.90
2018-04-15T04:57:40.797Z,99.10
2018-04-15T05:00:09.545Z,99.00
2018-04-15T05:02:37.968Z,94.50
2018-04-15T05:05:11.404Z,99.00
2018-04-15T05:07:40.562Z,94.20
2018-04-15T05:10:20.003Z,99.20
2018-04-15T05:12:47.743Z,99.30
2018-04-15T05:15:29.830Z,99.40
2018-04-15T05:17:58.249Z,94.90
2018-04-15T05:20:31.752Z,94.80
2018-04-15T05:23:00.195Z,94.70
2018-04-15T05:25:30.719Z,94.70
2018-04-15T05:27:58.473Z,99.80
2018-04-15T05:30:34.830Z,95.30
2018-04-15T05:33:03.834Z,95.10
2018-04-15T05:35:50.355Z,95.40
2018-04-15T05:38:18.210Z,99.70
2018-04-15T05:40:55.341Z,94.70
2018-04-15T05:43:23.456Z,95.60
2018-04-15T05:45:51.943Z,95.10
2018-04-15T05:48:20.426Z,95.10
2018-04-15T05:50:50.918Z,95.10
2018-04-15T05:53:19.210Z,99.70
2018-04-15T05:55:47.918Z,99.40
2018-04-15T05:58:16.359Z,94.90
2018-04-15T06:00:45.238Z,99.50
2018-04-15T06:03:13.724Z,94.60
2018-04-15T06:05:42.475Z,99.10
2018-04-15T06:08:11.078Z,94.50
2018-04-15T06:10:58.202Z,99.60
2018-04-15T06:13:26.655Z,94.70
2018-04-15T06:16:00.925Z,99.60
2018-04-15T06:18:29.792Z,94.90
2018-04-15T06:20:59.506Z,99.90
2018-04-15T06:23:27.162Z,99.90
2018-04-15T06:25:56.908Z,99.90
2018-04-15T06:28:25.034Z,95.30
2018-04-15T06:30:52.757Z,99.90
2018-04-15T06:33:21.234Z,95.70
2018-04-15T06:35:51.838Z,95.70
2018-04-15T06:38:19.935Z,95.20
2018-04-15T06:40:56.609Z,95.10
2018-04-15T06:43:25.090Z,95.60
2018-04-15T06:45:57.593Z,95.20
2018-04-15T06:48:25.325Z,99.90
2018-04-15T06:50:54.868Z,95.60
2018-04-15T06:53:23.336Z,95.40
2018-04-15T06:58:46.760Z,95.50
2018-04-15T07:01:16.069Z,95.90
2018-04-15T07:03:44.762Z,99.90
2018-04-15T07:06:13.956Z,95.90
2018-04-15T07:08:42.691Z,98.10
2018-04-15T07:11:11.590Z,95.90
2018-04-15T07:13:40.321Z,99.90
2018-04-15T07:16:07.991Z,99.90
2018-04-15T07:18:47.470Z,95.50
2018-04-15T07:21:15.194Z,98.40
2018-04-15T07:23:54.006Z,95.80
2018-04-15T07:26:23.153Z,96.00
2018-04-15T07:28:58.490Z,99.90
2018-04-15T07:31:26.592Z,95.70
2018-04-15T07:33:56.992Z,95.70
2018-04-15T07:36:25.929Z,95.70
2018-04-15T07:38:55.732Z,95.70
2018-04-15T07:41:23.535Z,99.90
2018-04-15T07:43:59.896Z,96.10
2018-04-15T07:46:28.413Z,96.70
2018-04-15T07:49:04.812Z,96.40
2018-04-15T07:51:32.558Z,99.90
2018-04-15T07:56:48.700Z,96.30
2018-04-15T07:59:16.750Z,96.20
2018-04-15T08:01:46.119Z,96.20
2018-04-15T08:04:13.828Z,99.90
2018-04-15T08:06:45.722Z,96.00
2018-04-15T08:09:13.404Z,99.90
2018-04-15T08:11:42.358Z,99.90
2018-04-15T08:14:10.455Z,97.50
2018-04-15T08:16:39.234Z,99.90
2018-04-15T08:19:07.723Z,95.80
2018-04-15T08:21:36.382Z,95.30
2018-04-15T08:24:04.103Z,99.90
2018-04-15T08:26:33.874Z,99.90
2018-04-15T08:29:02.373Z,95.60
2018-04-15T08:31:48.598Z,95.60
2018-04-15T08:34:17.088Z,95.30
2018-04-15T08:36:45.625Z,95.10
2018-04-15T08:41:49.746Z,94.90
2018-04-15T08:44:18.216Z,95.30
2018-04-15T08:46:47.973Z,99.40
2018-04-15T08:49:16.422Z,94.60
2018-04-15T08:51:44.189Z,98.80
2018-04-15T08:54:11.916Z,98.70
2018-04-15T08:56:41.053Z,94.00
2018-04-15T08:59:08.791Z,98.10
2018-04-15T09:01:37.913Z,93.80
2018-04-15T09:04:05.651Z,97.90
2018-04-15T09:06:35.181Z,94.10
2018-04-15T09:09:03.814Z,93.70
2018-04-15T09:11:41.792Z,96.90
2018-04-15T09:14:09.545Z,95.50
2018-04-15T09:16:38.346Z,98.20
2018-04-15T09:19:06.032Z,98.20
2018-04-15T09:24:03.683Z,93.90
2018-04-15T09:26:31.537Z,98.40
2018-04-15T09:29:00.048Z,94.80
2018-04-15T09:31:33.059Z,98.20
2018-04-15T09:34:01.915Z,93.80
2018-04-15T09:36:30.347Z,94.60
2018-04-15T09:38:58.761Z,94.40
2018-04-15T09:41:27.916Z,95.60
2018-04-15T09:46:35.488Z,98.30
2018-04-15T09:49:04.045Z,94.20
2018-04-15T09:51:33.765Z,98.50
2018-04-15T09:54:01.499Z,98.70
2018-04-15T09:56:30.300Z,98.60
2018-04-15T09:58:57.985Z,98.90
2018-04-15T10:01:34.283Z,99.00
2018-04-15T10:04:02.384Z,96.40
2018-04-15T10:06:34.862Z,95.00
2018-04-15T10:09:02.618Z,99.40
2018-04-15T10:11:31.296Z,99.60
2018-04-15T10:13:59.804Z,95.80
2018-04-15T10:16:27.923Z,95.50
2018-04-15T10:18:55.670Z,99.80
2018-04-15T10:21:25.440Z,99.90
2018-04-15T10:23:53.136Z,99.90
2018-04-15T10:26:24.433Z,99.70
2018-04-15T10:28:52.170Z,99.70
2018-04-15T10:31:22.406Z,96.00
2018-04-15T10:33:50.830Z,95.60
2018-04-15T10:36:19.354Z,95.60
2018-04-15T10:38:47.098Z,98.90
2018-04-15T10:41:15.631Z,95.70
2018-04-15T10:43:44.073Z,95.60
2018-04-15T10:46:19.196Z,99.10
2018-04-15T10:48:46.937Z,99.30
2018-04-15T10:51:16.653Z,98.70
2018-04-15T10:53:44.384Z,98.40
2018-04-15T10:56:13.956Z,94.10
2018-04-15T10:58:42.893Z,93.70
2018-04-15T11:01:11.060Z,94.70
2018-04-15T11:03:38.760Z,97.20
2018-04-15T11:06:13.771Z,97.00
2018-04-15T11:08:42.701Z,96.40
2018-04-15T11:11:10.445Z,96.30
2018-04-15T11:13:38.942Z,91.50
2018-04-15T11:16:06.705Z,94.70
2018-04-15T11:18:34.426Z,95.00
2018-04-15T11:21:10.392Z,90.40
2018-04-15T11:23:38.050Z,93.20
2018-04-15T11:28:34.868Z,92.80
2018-04-15T11:33:35.151Z,91.40
2018-04-15T11:36:03.915Z,92.80
2018-04-15T11:38:32.409Z,88.40
2018-04-15T11:41:05.833Z,92.90
2018-04-15T11:43:33.637Z,93.00
2018-04-15T11:46:04.011Z,86.20
2018-04-15T11:48:32.069Z,86.90
2018-04-15T11:50:59.833Z,92.10
2018-04-15T11:53:27.603Z,92.50
2018-04-15T11:55:58.815Z,86.40
2018-04-15T11:58:27.499Z,84.80
2018-04-15T12:00:55.984Z,82.50
2018-04-15T12:05:52.876Z,84.30
2018-04-15T12:08:20.590Z,87.30
2018-04-15T12:10:49.323Z,85.30
2018-04-15T12:13:17.078Z,87.20
2018-04-15T12:15:44.848Z,81.90
2018-04-15T12:18:12.955Z,76.30
2018-04-15T12:23:17.689Z,73.50
2018-04-15T12:25:48.968Z,78.60
2018-04-15T12:28:16.690Z,79.70
2018-04-15T12:30:45.424Z,77.20
2018-04-15T12:33:13.103Z,70.90
2018-04-15T12:35:41.249Z,68.40
2018-04-15T12:38:08.976Z,72.90
2018-04-15T12:43:08.539Z,71.00
2018-04-15T12:45:39.391Z,69.40
2018-04-15T12:48:07.865Z,72.10
2018-04-15T12:50:37.646Z,74.10
2018-04-15T12:53:05.424Z,72.90
2018-04-15T12:55:39.768Z,69.20
2018-04-15T12:58:07.837Z,62.80
2018-04-15T13:00:38.485Z,65.00
2018-04-15T13:03:06.197Z,72.20
2018-04-15T13:05:38.006Z,66.80
2018-04-15T13:08:05.746Z,73.60
2018-04-15T13:10:36.421Z,66.90
2018-04-15T13:13:04.926Z,67.70
2018-04-15T13:15:40.202Z,74.20
2018-04-15T13:20:39.986Z,70.50
2018-04-15T13:23:07.685Z,73.90
2018-04-15T13:25:39.916Z,70.80
2018-04-15T13:28:07.654Z,77.10
2018-04-15T13:30:41.665Z,79.40
2018-04-15T13:33:10.950Z,70.30
2018-04-15T13:35:42.196Z,73.90
2018-04-15T13:38:10.351Z,71.70
2018-04-15T13:40:44.229Z,73.60
2018-04-15T13:43:12.377Z,74.00
2018-04-15T13:45:44.070Z,74.80
2018-04-15T13:48:11.888Z,82.70
2018-04-15T13:50:44.007Z,79.60
2018-04-15T13:53:11.724Z,82.10
2018-04-15T13:55:40.481Z,82.10
2018-04-15T13:58:09.743Z,76.80
2018-04-15T14:00:37.405Z,83.10
2018-04-15T14:03:05.143Z,82.70
2018-04-15T14:05:34.819Z,83.40
2018-04-15T14:08:02.991Z,76.50
2018-04-15T14:10:37.871Z,78.40
2018-04-15T14:13:05.671Z,85.60
2018-04-15T14:15:39.688Z,79.40
2018-04-15T14:18:08.337Z,79.50
2018-04-15T14:20:37.068Z,84.20
2018-04-15T14:23:05.554Z,76.50
2018-04-15T14:25:33.314Z,80.40
2018-04-15T14:28:01.387Z,71.40
2018-04-15T14:33:11.437Z,63.60
2018-04-15T14:38:09.105Z,60.80
2018-04-15T14:40:36.822Z,64.60
2018-04-15T14:43:05.317Z,58.20
2018-04-15T14:45:36.215Z,60.30
2018-04-15T14:48:03.928Z,67.30
2018-04-15T14:50:33.039Z,60.50
2018-04-15T14:53:00.814Z,68.70
2018-04-15T14:55:29.753Z,66.40
2018-04-15T14:57:57.900Z,67.80
2018-04-15T15:03:24.517Z,69.40
2018-04-15T15:05:52.279Z,67.40
2018-04-15T15:08:32.077Z,66.20
2018-04-15T15:10:59.842Z,66.30
2018-04-15T15:13:27.582Z,65.80
2018-04-15T15:15:56.525Z,62.10
2018-04-15T15:18:29.264Z,65.80
2018-04-15T15:20:58.170Z,58.10
2018-04-15T15:28:34.937Z,55.10
2018-04-15T15:31:03.523Z,55.20
2018-04-15T15:33:33.296Z,56.20
2018-04-15T15:36:02.532Z,56.30
2018-04-15T15:43:31.485Z,59.30
2018-04-15T15:45:59.591Z,59.30
2018-04-15T15:48:31.595Z,58.30
2018-04-15T15:51:00.473Z,55.50
2018-04-15T15:53:29.248Z,56.40
2018-04-15T15:55:58.496Z,54.30
2018-04-15T15:58:29.079Z,54.50
2018-04-15T16:00:56.789Z,55.40
2018-04-15T16:03:26.500Z,53.90
2018-04-15T16:08:24.497Z,55.80
2018-04-15T16:10:52.218Z,55.40
2018-04-15T16:13:24.154Z,54.80
2018-04-15T16:15:51.817Z,56.70
2018-04-15T16:18:19.940Z,56.20
2018-04-15T16:20:47.731Z,60.10
2018-04-15T16:23:16.604Z,58.10
2018-04-15T16:25:44.343Z,61.90
2018-04-15T16:28:15.630Z,59.20
2018-04-15T16:30:43.858Z,61.20
2018-04-15T16:33:15.740Z,63.50
2018-04-15T16:35:43.498Z,69.10
2018-04-15T16:38:25.403Z,65.90
2018-04-15T16:40:53.087Z,71.10
2018-04-15T16:43:25.375Z,71.90
2018-04-15T16:45:53.057Z,73.80
2018-04-15T16:48:22.234Z,68.70
2018-04-15T16:50:51.133Z,68.00
2018-04-15T16:53:26.912Z,75.30
2018-04-15T16:55:54.696Z,76.00
2018-04-15T16:58:30.500Z,70.50
2018-04-15T17:00:58.232Z,77.70
2018-04-15T17:03:25.988Z,78.50
2018-04-15T17:05:54.150Z,79.50
2018-04-15T17:08:21.899Z,81.10
2018-04-15T17:13:18.707Z,77.80
2018-04-15T17:15:46.588Z,81.60
2018-04-15T17:26:38.327Z,79.30
2018-04-15T17:29:20.915Z,87.70
2018-04-15T17:31:49.077Z,80.40
2018-04-15T17:34:18.773Z,88.20
2018-04-15T17:36:47.389Z,81.00
2018-04-15T17:39:16.886Z,82.40
2018-04-15T17:41:45.390Z,82.90
2018-04-15T17:44:17.764Z,90.20
2018-04-15T17:46:45.512Z,90.20
2018-04-15T17:49:17.948Z,84.10
2018-04-15T17:51:45.657Z,90.60
2018-04-15T17:54:15.129Z,83.50
2018-04-15T17:56:43.979Z,83.90
2018-04-15T17:59:11.724Z,91.10
2018-04-15T18:01:39.827Z,84.40
2018-04-15T18:04:13.735Z,85.20
2018-04-15T18:06:41.830Z,84.70
2018-04-15T18:09:09.557Z,91.50
2018-04-15T18:11:38.803Z,85.70
2018-04-15T18:14:10.290Z,87.80
2018-04-15T18:16:38.060Z,92.60
2018-04-15T18:19:07.053Z,88.20
2018-04-15T18:21:35.930Z,88.50
2018-04-15T18:24:03.599Z,92.80
2018-04-15T18:26:31.315Z,93.40
2018-04-15T18:29:00.049Z,93.20
2018-04-15T18:31:27.764Z,93.70
2018-04-15T18:34:01.280Z,90.00
2018-04-15T18:36:29.785Z,90.70
2018-04-15T18:38:58.560Z,94.40
2018-04-15T18:41:26.435Z,94.60
2018-04-15T18:43:54.124Z,94.80
2018-04-15T18:46:22.244Z,91.30
2018-04-15T18:49:06.744Z,91.00
2018-04-15T18:51:34.585Z,95.40
2018-04-15T18:54:06.915Z,91.30
2018-04-15T18:56:34.657Z,95.90
2018-04-15T18:59:07.306Z,91.80
2018-04-15T19:01:35.372Z,91.80
2018-04-15T19:04:03.158Z,93.90
2018-04-15T19:06:30.886Z,96.10
2018-04-15T19:09:00.392Z,92.30
2018-04-15T19:11:28.487Z,92.60
2018-04-15T19:14:00.878Z,91.80
2018-04-15T19:16:29.739Z,91.90
2018-04-15T19:18:57.545Z,95.90
2018-04-15T19:21:25.283Z,96.10
2018-04-15T19:23:54.205Z,96.60
2018-04-15T19:26:21.959Z,96.70
2018-04-15T19:28:50.466Z,92.30
2018-04-15T19:31:26.679Z,97.30
2018-04-15T19:33:54.864Z,92.90
2018-04-15T19:36:27.321Z,92.60
2018-04-15T19:38:55.135Z,97.00
2018-04-15T19:41:27.877Z,96.80
2018-04-15T19:43:55.745Z,97.00
2018-04-15T19:46:39.005Z,93.00
2018-04-15T19:49:07.262Z,97.20
2018-04-15T19:51:36.949Z,97.20
2018-04-15T19:54:04.681Z,95.10
2018-04-15T19:56:43.969Z,93.50
2018-04-15T19:59:11.631Z,97.60
2018-04-15T20:01:42.444Z,97.60
2018-04-15T20:04:10.236Z,95.80
2018-04-15T20:06:43.164Z,93.30
2018-04-15T20:09:11.278Z,93.30
2018-04-15T20:11:42.390Z,94.40
2018-04-15T20:14:10.093Z,95.20
2018-04-15T20:16:38.655Z,93.10
2018-04-15T20:19:07.185Z,93.00
2018-04-15T20:21:48.920Z,97.30
2018-04-15T20:24:17.055Z,94.20
2018-04-15T20:26:46.672Z,98.60
2018-04-15T20:29:15.350Z,94.60
2018-04-15T20:31:44.759Z,95.10
2018-04-15T20:34:12.846Z,94.80
2018-04-15T20:36:43.435Z,94.50
2018-04-15T20:39:11.520Z,94.40
2018-04-15T20:41:59.811Z,97.10
2018-04-15T20:44:28.616Z,94.40
2018-04-15T20:46:58.432Z,97.80
2018-04-15T20:49:26.158Z,99.30
2018-04-15T20:51:57.720Z,96.10
2018-04-15T20:54:25.532Z,97.90
2018-04-15T20:56:54.979Z,94.50
2018-04-15T20:59:23.102Z,94.80
2018-04-15T21:02:01.926Z,94.70
2018-04-15T21:04:29.658Z,99.60
2018-04-15T21:07:01.342Z,99.70
2018-04-15T21:09:29.489Z,94.60
2018-04-15T21:11:57.195Z,99.20
2018-04-15T21:14:25.717Z,95.10
2018-04-15T21:17:10.862Z,94.60
2018-04-15T21:19:38.593Z,98.80
2018-04-15T21:22:07.887Z,94.60
2018-04-15T21:24:35.595Z,99.20
2018-04-15T21:27:03.740Z,94.70
2018-04-15T21:29:31.877Z,94.70
2018-04-15T21:31:59.654Z,99.20
2018-04-15T21:34:27.298Z,99.00
2018-04-15T21:36:55.382Z,94.60
2018-04-15T21:39:23.101Z,99.30
2018-04-15T21:41:51.264Z,94.60
2018-04-15T21:44:19.433Z,94.70
2018-04-15T21:46:47.120Z,99.60
2018-04-15T21:49:15.566Z,95.10
2018-04-15T21:52:06.703Z,99.50
2018-04-15T21:54:35.217Z,95.20
2018-04-15T21:57:11.921Z,95.50
2018-04-15T21:59:40.037Z,95.40
2018-04-15T22:02:09.751Z,99.90
2018-04-15T22:07:12.377Z,95.30
2018-04-15T22:09:40.455Z,99.20
2018-04-15T22:12:14.445Z,95.10
2018-04-15T22:14:42.650Z,96.80
2018-04-15T22:17:12.384Z,98.90
2018-04-15T22:19:40.876Z,95.10
2018-04-15T22:22:14.885Z,96.10
2018-04-15T22:24:43.872Z,95.30
2018-04-15T22:27:16.809Z,96.00
2018-04-15T22:29:44.461Z,99.90
2018-04-15T22:32:16.312Z,95.80
2018-04-15T22:34:44.013Z,99.90
2018-04-15T22:37:13.308Z,99.90
2018-04-15T22:39:41.384Z,97.20
2018-04-15T22:45:10.227Z,95.60
2018-04-15T22:47:44.384Z,95.90
2018-04-15T22:50:18.035Z,99.90
2018-04-15T22:52:53.663Z,95.70
2018-04-15T22:55:23.093Z,95.60
2018-04-15T22:57:50.782Z,99.90
2018-04-15T23:00:22.760Z,99.90
2018-04-15T23:02:50.485Z,99.90
2018-04-15T23:05:21.120Z,95.70
2018-04-15T23:07:49.581Z,96.10
2018-04-15T23:10:22.493Z,96.90
2018-04-15T23:12:50.981Z,96.10
2018-04-15T23:15:19.710Z,99.90
2018-04-15T23:17:47.470Z,99.40
2018-04-15T23:20:17.615Z,96.40
2018-04-15T23:22:45.750Z,96.40
2018-04-15T23:25:20.179Z,99.90
2018-04-15T23:27:48.392Z,99.90
2018-04-15T23:30:29.497Z,96.50
2018-04-15T23:32:57.619Z,99.60
2018-04-15T23:35:30.362Z,99.90
2018-04-15T23:37:58.906Z,96.00
2018-04-15T23:40:31.785Z,99.90
2018-04-15T23:43:00.376Z,96.50
2018-04-15T23:45:36.493Z,96.20
2018-04-15T23:48:04.211Z,99.90
2018-04-15T23:50:32.974Z,99.90
2018-04-15T23:53:00.637Z,99.90
2018-04-15T23:55:28.333Z,99.90
2018-04-15T23:57:56.138Z,99.90
